sensor_id;sensor_type;location;lat;lon;timestamp;P1;durP1;ratioP1;P2;durP2;ratioP2
7883;SDS011;3987;51.458;7.238;2022-12-29T00:12:45;1.07;;;0.80;;
7883;SDS011;3987;51.458;7.238;2022-12-29T00:28:04;0.90;;;0.90;;
7883;SDS011;3987;51.458;7.238;2022-12-29T00:43:23;0.97;;;0.97;;
7883;SDS011;3987;51.458;7.238;2022-12-29T00:58:42;0.43;;;0.43;;
7883;SDS011;3987;51.458;7.238;2022-12-29T01:13:42;0.40;;;0.40;;
7883;SDS011;3987;51.458;7.238;2022-12-29T01:28:45;0.50;;;0.40;;
7883;SDS011;3987;51.458;7.238;2022-12-29T01:43:49;0.30;;;0.30;;
7883;SDS011;3987;51.458;7.238;2022-12-29T01:58:55;0.30;;;0.30;;
7883;SDS011;3987;51.458;7.238;2022-12-29T02:14:00;0.30;;;0.30;;
7883;SDS011;3987;51.458;7.238;2022-12-29T02:44:26;0.33;;;0.33;;
7883;SDS011;3987;51.458;7.238;2022-12-29T02:59:27;0.40;;;0.40;;
7883;SDS011;3987;51.458;7.238;2022-12-29T03:14:39;0.47;;;0.47;;
7883;SDS011;3987;51.458;7.238;2022-12-29T03:30:04;0.60;;;0.60;;
7883;SDS011;3987;51.458;7.238;2022-12-29T03:45:06;0.87;;;0.60;;
7883;SDS011;3987;51.458;7.238;2022-12-29T04:00:08;0.50;;;0.50;;
7883;SDS011;3987;51.458;7.238;2022-12-29T04:15:23;1.33;;;0.47;;
7883;SDS011;3987;51.458;7.238;2022-12-29T04:30:24;0.50;;;0.50;;
7883;SDS011;3987;51.458;7.238;2022-12-29T04:45:43;0.40;;;0.40;;
7883;SDS011;3987;51.458;7.238;2022-12-29T05:00:56;0.50;;;0.50;;
7883;SDS011;3987;51.458;7.238;2022-12-29T05:16:00;0.37;;;0.37;;
7883;SDS011;3987;51.458;7.238;2022-12-29T05:31:01;0.40;;;0.40;;
7883;SDS011;3987;51.458;7.238;2022-12-29T05:46:03;0.37;;;0.37;;
7883;SDS011;3987;51.458;7.238;2022-12-29T06:01:18;0.50;;;0.50;;
7883;SDS011;3987;51.458;7.238;2022-12-29T06:16:19;0.50;;;0.50;;
7883;SDS011;3987;51.458;7.238;2022-12-29T06:31:20;1.90;;;0.50;;
7883;SDS011;3987;51.458;7.238;2022-12-29T06:46:22;0.50;;;0.50;;
7883;SDS011;3987;51.458;7.238;2022-12-29T07:01:22;1.30;;;0.40;;
7883;SDS011;3987;51.458;7.238;2022-12-29T07:16:23;1.33;;;1.00;;
7883;SDS011;3987;51.458;7.238;2022-12-29T07:31:23;1.87;;;0.60;;
7883;SDS011;3987;51.458;7.238;2022-12-29T07:46:23;0.73;;;0.60;;
7883;SDS011;3987;51.458;7.238;2022-12-29T08:01:24;1.63;;;0.60;;
7883;SDS011;3987;51.458;7.238;2022-12-29T08:16:24;1.63;;;0.73;;
7883;SDS011;3987;51.458;7.238;2022-12-29T08:31:25;1.47;;;0.70;;
7883;SDS011;3987;51.458;7.238;2022-12-29T08:46:25;2.77;;;0.77;;
7883;SDS011;3987;51.458;7.238;2022-12-29T09:01:26;1.13;;;0.87;;
7883;SDS011;3987;51.458;7.238;2022-12-29T09:16:26;2.23;;;0.87;;
7883;SDS011;3987;51.458;7.238;2022-12-29T09:31:27;2.33;;;0.70;;
7883;SDS011;3987;51.458;7.238;2022-12-29T09:46:28;1.90;;;1.00;;
7883;SDS011;3987;51.458;7.238;2022-12-29T10:01:36;4.30;;;0.83;;
7883;SDS011;3987;51.458;7.238;2022-12-29T10:16:51;3.83;;;1.37;;
7883;SDS011;3987;51.458;7.238;2022-12-29T10:32:06;1.93;;;1.27;;
7883;SDS011;3987;51.458;7.238;2022-12-29T10:47:13;2.63;;;0.88;;
7883;SDS011;3987;51.458;7.238;2022-12-29T11:02:30;4.07;;;1.00;;
7883;SDS011;3987;51.458;7.238;2022-12-29T11:17:52;3.80;;;0.90;;
7883;SDS011;3987;51.458;7.238;2022-12-29T11:32:54;4.90;;;1.27;;
7883;SDS011;3987;51.458;7.238;2022-12-29T11:48:08;5.00;;;1.10;;
7883;SDS011;3987;51.458;7.238;2022-12-29T12:03:17;3.43;;;0.80;;
7883;SDS011;3987;51.458;7.238;2022-12-29T12:18:34;1.40;;;0.97;;
7883;SDS011;3987;51.458;7.238;2022-12-29T12:33:38;3.53;;;0.70;;
7883;SDS011;3987;51.458;7.238;2022-12-29T13:49:57;1.30;;;1.20;;
7883;SDS011;3987;51.458;7.238;2022-12-29T14:05:00;1.47;;;1.00;;
7883;SDS011;3987;51.458;7.238;2022-12-29T14:20:02;3.03;;;0.87;;
7883;SDS011;3987;51.458;7.238;2022-12-29T14:50:41;3.10;;;1.30;;
7883;SDS011;3987;51.458;7.238;2022-12-29T15:20:49;2.63;;;0.93;;
7883;SDS011;3987;51.458;7.238;2022-12-29T15:35:52;2.83;;;1.20;;
7883;SDS011;3987;51.458;7.238;2022-12-29T15:50:54;3.27;;;1.60;;
7883;SDS011;3987;51.458;7.238;2022-12-29T16:05:55;4.13;;;1.17;;
7883;SDS011;3987;51.458;7.238;2022-12-29T16:20:57;0.93;;;0.93;;
7883;SDS011;3987;51.458;7.238;2022-12-29T16:35:58;4.13;;;1.80;;
7883;SDS011;3987;51.458;7.238;2022-12-29T16:51:15;5.13;;;1.77;;
7883;SDS011;3987;51.458;7.238;2022-12-29T17:06:17;3.13;;;1.43;;
7883;SDS011;3987;51.458;7.238;2022-12-29T17:21:18;1.70;;;1.57;;
7883;SDS011;3987;51.458;7.238;2022-12-29T17:36:19;4.87;;;1.50;;
7883;SDS011;3987;51.458;7.238;2022-12-29T17:51:19;2.37;;;1.23;;
7883;SDS011;3987;51.458;7.238;2022-12-29T18:06:20;1.00;;;1.00;;
7883;SDS011;3987;51.458;7.238;2022-12-29T18:21:21;2.03;;;1.20;;
7883;SDS011;3987;51.458;7.238;2022-12-29T18:36:22;1.87;;;1.40;;
7883;SDS011;3987;51.458;7.238;2022-12-29T18:51:24;2.35;;;1.80;;
7883;SDS011;3987;51.458;7.238;2022-12-29T19:06:24;6.07;;;2.03;;
7883;SDS011;3987;51.458;7.238;2022-12-29T19:21:25;5.33;;;1.93;;
7883;SDS011;3987;51.458;7.238;2022-12-29T19:36:25;5.63;;;2.33;;
7883;SDS011;3987;51.458;7.238;2022-12-29T19:51:26;7.70;;;2.47;;
7883;SDS011;3987;51.458;7.238;2022-12-29T20:06:26;7.67;;;3.20;;
7883;SDS011;3987;51.458;7.238;2022-12-29T20:21:27;6.77;;;2.30;;
7883;SDS011;3987;51.458;7.238;2022-12-29T20:36:28;4.43;;;2.13;;
7883;SDS011;3987;51.458;7.238;2022-12-29T20:51:30;6.27;;;2.57;;
7883;SDS011;3987;51.458;7.238;2022-12-29T21:06:31;2.53;;;1.67;;
7883;SDS011;3987;51.458;7.238;2022-12-29T21:21:32;3.37;;;1.80;;
7883;SDS011;3987;51.458;7.238;2022-12-29T21:36:34;5.43;;;1.93;;
7883;SDS011;3987;51.458;7.238;2022-12-29T21:51:35;7.43;;;1.90;;
7883;SDS011;3987;51.458;7.238;2022-12-29T22:06:51;8.63;;;2.50;;
7883;SDS011;3987;51.458;7.238;2022-12-29T22:22:10;7.63;;;2.37;;
7883;SDS011;3987;51.458;7.238;2022-12-29T22:37:10;8.53;;;2.83;;
7883;SDS011;3987;51.458;7.238;2022-12-29T22:52:11;9.53;;;2.53;;
7883;SDS011;3987;51.458;7.238;2022-12-29T23:07:11;9.60;;;2.77;;
7883;SDS011;3987;51.458;7.238;2022-12-29T23:22:11;5.00;;;2.63;;
7883;SDS011;3987;51.458;7.238;2022-12-29T23:37:12;6.10;;;2.70;;
7883;SDS011;3987;51.458;7.238;2022-12-29T23:52:13;8.57;;;2.47;;
